sensor_id;sensor_type;location;lat;lon;timestamp;pressure;altitude;pressure_sealevel;temperature;humidity
10261;BME280;5175;42.606;23.388;2023-04-15T00:01:40;92993.44;;;6.02;98.49
10261;BME280;5175;42.606;23.388;2023-04-15T00:04:07;93000.00;;;6.14;98.53
10261;BME280;5175;42.606;23.388;2023-04-15T00:06:36;92992.63;;;6.06;100.00
10261;BME280;5175;42.606;23.388;2023-04-15T00:09:04;92981.22;;;6.21;100.00
10261;BME280;5175;42.606;23.388;2023-04-15T00:11:30;92990.47;;;6.18;99.48
10261;BME280;5175;42.606;23.388;2023-04-15T00:13:57;93008.78;;;6.10;100.00
10261;BME280;5175;42.606;23.388;2023-04-15T00:16:25;92995.75;;;6.28;98.07
10261;BME280;5175;42.606;23.388;2023-04-15T00:18:52;93000.47;;;6.37;98.80
10261;BME280;5175;42.606;23.388;2023-04-15T00:21:19;93004.44;;;6.39;98.62
10261;BME280;5175;42.606;23.388;2023-04-15T00:23:47;93005.84;;;6.11;99.85
10261;BME280;5175;42.606;23.388;2023-04-15T00:26:18;93000.19;;;6.38;98.88
10261;BME280;5175;42.606;23.388;2023-04-15T00:28:45;93009.19;;;6.42;98.85
10261;BME280;5175;42.606;23.388;2023-04-15T00:31:12;93010.50;;;6.45;98.38
10261;BME280;5175;42.606;23.388;2023-04-15T00:33:39;93014.69;;;6.56;98.24
10261;BME280;5175;42.606;23.388;2023-04-15T00:36:06;93016.53;;;6.55;98.79
10261;BME280;5175;42.606;23.388;2023-04-15T00:38:35;93016.25;;;6.62;99.88
10261;BME280;5175;42.606;23.388;2023-04-15T00:41:04;93017.69;;;6.39;100.00
10261;BME280;5175;42.606;23.388;2023-04-15T00:43:30;93018.19;;;6.41;100.00
10261;BME280;5175;42.606;23.388;2023-04-15T00:45:58;93018.03;;;6.17;100.00
10261;BME280;5175;42.606;23.388;2023-04-15T00:48:27;93025.50;;;6.00;100.00
10261;BME280;5175;42.606;23.388;2023-04-15T00:50:54;93011.19;;;5.81;100.00
10261;BME280;5175;42.606;23.388;2023-04-15T00:53:21;93032.13;;;5.73;100.00
10261;BME280;5175;42.606;23.388;2023-04-15T00:55:48;93028.16;;;5.75;100.00
10261;BME280;5175;42.606;23.388;2023-04-15T00:58:17;93026.31;;;5.45;100.00
10261;BME280;5175;42.606;23.388;2023-04-15T01:00:44;93021.03;;;5.30;100.00
10261;BME280;5175;42.606;23.388;2023-04-15T01:03:12;93028.44;;;5.43;100.00
10261;BME280;5175;42.606;23.388;2023-04-15T01:05:39;93024.72;;;5.64;96.95
10261;BME280;5175;42.606;23.388;2023-04-15T01:08:06;93029.22;;;5.74;95.86
10261;BME280;5175;42.606;23.388;2023-04-15T01:10:34;93028.38;;;5.84;95.70
10261;BME280;5175;42.606;23.388;2023-04-15T01:13:01;93030.25;;;5.78;95.06
10261;BME280;5175;42.606;23.388;2023-04-15T01:15:30;92989.53;;;5.64;96.34
10261;BME280;5175;42.606;23.388;2023-04-15T01:17:58;93013.31;;;5.84;97.21
10261;BME280;5175;42.606;23.388;2023-04-15T01:20:25;93027.38;;;5.39;98.15
10261;BME280;5175;42.606;23.388;2023-04-15T01:22:53;93023.13;;;4.93;98.76
10261;BME280;5175;42.606;23.388;2023-04-15T01:25:29;93010.69;;;5.03;99.19
10261;BME280;5175;42.606;23.388;2023-04-15T01:27:57;93002.25;;;5.06;99.67
10261;BME280;5175;42.606;23.388;2023-04-15T01:30:24;93012.81;;;5.17;97.39
10261;BME280;5175;42.606;23.388;2023-04-15T01:32:51;93008.09;;;5.19;98.42
10261;BME280;5175;42.606;23.388;2023-04-15T01:35:18;92966.03;;;4.92;99.00
10261;BME280;5175;42.606;23.388;2023-04-15T01:37:45;92970.78;;;4.80;96.78
10261;BME280;5175;42.606;23.388;2023-04-15T01:40:13;93025.78;;;5.18;99.27
10261;BME280;5175;42.606;23.388;2023-04-15T01:42:41;93019.19;;;5.21;99.78
10261;BME280;5175;42.606;23.388;2023-04-15T01:45:08;93023.94;;;5.19;99.56
10261;BME280;5175;42.606;23.388;2023-04-15T01:47:35;93025.47;;;4.84;95.36
10261;BME280;5175;42.606;23.388;2023-04-15T01:50:04;93019.19;;;5.11;98.15
10261;BME280;5175;42.606;23.388;2023-04-15T01:52:31;93023.16;;;5.13;98.32
10261;BME280;5175;42.606;23.388;2023-04-15T01:54:58;93025.22;;;5.06;98.48
10261;BME280;5175;42.606;23.388;2023-04-15T01:57:25;93027.09;;;4.95;97.88
10261;BME280;5175;42.606;23.388;2023-04-15T01:59:53;93028.88;;;4.70;96.74
10261;BME280;5175;42.606;23.388;2023-04-15T02:02:20;93023.34;;;4.71;96.74
10261;BME280;5175;42.606;23.388;2023-04-15T02:04:47;93021.22;;;4.78;97.86
10261;BME280;5175;42.606;23.388;2023-04-15T02:07:14;93017.78;;;4.83;96.96
10261;BME280;5175;42.606;23.388;2023-04-15T02:09:42;93016.78;;;4.99;96.73
10261;BME280;5175;42.606;23.388;2023-04-15T02:12:10;93022.06;;;5.04;95.98
10261;BME280;5175;42.606;23.388;2023-04-15T02:14:37;93022.63;;;5.21;97.16
10261;BME280;5175;42.606;23.388;2023-04-15T02:17:05;93022.59;;;5.11;97.49
10261;BME280;5175;42.606;23.388;2023-04-15T02:19:33;93021.81;;;5.11;98.83
10261;BME280;5175;42.606;23.388;2023-04-15T02:22:00;93028.97;;;5.25;100.00
10261;BME280;5175;42.606;23.388;2023-04-15T02:24:27;93022.63;;;5.26;100.00
10261;BME280;5175;42.606;23.388;2023-04-15T02:26:54;93020.22;;;5.35;100.00
10261;BME280;5175;42.606;23.388;2023-04-15T02:29:22;93017.59;;;5.10;100.00
10261;BME280;5175;42.606;23.388;2023-04-15T02:31:48;93012.25;;;4.74;97.97
10261;BME280;5175;42.606;23.388;2023-04-15T02:34:17;93009.44;;;4.24;95.70
10261;BME280;5175;42.606;23.388;2023-04-15T02:36:44;93006.13;;;4.49;96.75
10261;BME280;5175;42.606;23.388;2023-04-15T02:39:11;92996.09;;;4.56;96.59
10261;BME280;5175;42.606;23.388;2023-04-15T02:41:41;93008.00;;;4.63;95.64
10261;BME280;5175;42.606;23.388;2023-04-15T02:44:08;93000.38;;;4.82;100.00
10261;BME280;5175;42.606;23.388;2023-04-15T02:46:37;92982.41;;;4.89;100.00
10261;BME280;5175;42.606;23.388;2023-04-15T02:49:05;92972.63;;;4.89;100.00
10261;BME280;5175;42.606;23.388;2023-04-15T02:51:34;93008.06;;;5.14;100.00
10261;BME280;5175;42.606;23.388;2023-04-15T02:54:01;92999.59;;;5.22;100.00
10261;BME280;5175;42.606;23.388;2023-04-15T02:56:28;92987.19;;;5.22;100.00
10261;BME280;5175;42.606;23.388;2023-04-15T02:58:55;93002.50;;;5.40;100.00
10261;BME280;5175;42.606;23.388;2023-04-15T03:01:36;93003.03;;;5.42;100.00
10261;BME280;5175;42.606;23.388;2023-04-15T03:04:02;93004.63;;;5.33;100.00
10261;BME280;5175;42.606;23.388;2023-04-15T03:06:30;93004.88;;;5.17;100.00
10261;BME280;5175;42.606;23.388;2023-04-15T03:08:58;93006.19;;;4.89;100.00
10261;BME280;5175;42.606;23.388;2023-04-15T03:11:26;93022.88;;;5.10;100.00
10261;BME280;5175;42.606;23.388;2023-04-15T03:13:53;93037.94;;;5.04;100.00
10261;BME280;5175;42.606;23.388;2023-04-15T03:16:20;93038.22;;;5.07;100.00
10261;BME280;5175;42.606;23.388;2023-04-15T03:18:47;93037.94;;;5.09;100.00
10261;BME280;5175;42.606;23.388;2023-04-15T03:21:14;93042.16;;;5.10;100.00
10261;BME280;5175;42.606;23.388;2023-04-15T03:23:40;93038.72;;;4.99;100.00
10261;BME280;5175;42.606;23.388;2023-04-15T03:26:09;93052.97;;;4.98;100.00
10261;BME280;5175;42.606;23.388;2023-04-15T03:28:35;93053.25;;;4.97;100.00
10261;BME280;5175;42.606;23.388;2023-04-15T03:31:02;93055.09;;;4.96;100.00
10261;BME280;5175;42.606;23.388;2023-04-15T03:33:29;93054.06;;;5.02;100.00
10261;BME280;5175;42.606;23.388;2023-04-15T03:35:56;93062.19;;;4.81;100.00
10261;BME280;5175;42.606;23.388;2023-04-15T03:38:22;93060.81;;;4.58;100.00
10261;BME280;5175;42.606;23.388;2023-04-15T03:40:49;93064.53;;;4.62;100.00
10261;BME280;5175;42.606;23.388;2023-04-15T03:43:17;93061.38;;;4.75;100.00
10261;BME280;5175;42.606;23.388;2023-04-15T03:45:44;93076.47;;;4.80;100.00
10261;BME280;5175;42.606;23.388;2023-04-15T03:48:11;93080.03;;;4.43;100.00
10261;BME280;5175;42.606;23.388;2023-04-15T03:50:38;93077.38;;;4.38;100.00
10261;BME280;5175;42.606;23.388;2023-04-15T03:53:05;93088.75;;;4.44;100.00
10261;BME280;5175;42.606;23.388;2023-04-15T03:55:31;93087.19;;;4.53;100.00
10261;BME280;5175;42.606;23.388;2023-04-15T03:57:58;93070.88;;;4.61;100.00
10261;BME280;5175;42.606;23.388;2023-04-15T04:00:26;93073.50;;;4.61;100.00
10261;BME280;5175;42.606;23.388;2023-04-15T04:02:53;93066.66;;;4.75;100.00
10261;BME280;5175;42.606;23.388;2023-04-15T04:05:20;93080.16;;;4.74;100.00
10261;BME280;5175;42.606;23.388;2023-04-15T04:07:47;93048.97;;;4.71;100.00
10261;BME280;5175;42.606;23.388;2023-04-15T04:10:14;93079.16;;;5.00;100.00
10261;BME280;5175;42.606;23.388;2023-04-15T04:12:41;93066.75;;;5.00;100.00
10261;BME280;5175;42.606;23.388;2023-04-15T04:15:08;93082.81;;;4.84;100.00
10261;BME280;5175;42.606;23.388;2023-04-15T04:17:37;93091.31;;;5.11;100.00
10261;BME280;5175;42.606;23.388;2023-04-15T04:20:05;93087.94;;;5.16;100.00
10261;BME280;5175;42.606;23.388;2023-04-15T04:22:36;93085.81;;;5.33;100.00
10261;BME280;5175;42.606;23.388;2023-04-15T04:25:04;93089.28;;;5.53;100.00
10261;BME280;5175;42.606;23.388;2023-04-15T04:27:31;93095.88;;;5.71;100.00
10261;BME280;5175;42.606;23.388;2023-04-15T04:29:58;93090.59;;;5.76;100.00
10261;BME280;5175;42.606;23.388;2023-04-15T04:32:25;93095.88;;;5.81;100.00
10261;BME280;5175;42.606;23.388;2023-04-15T04:34:53;93092.72;;;5.84;100.00
10261;BME280;5175;42.606;23.388;2023-04-15T04:37:20;93084.50;;;5.76;100.00
10261;BME280;5175;42.606;23.388;2023-04-15T04:39:47;93089.56;;;5.97;100.00
10261;BME280;5175;42.606;23.388;2023-04-15T04:42:14;93080.00;;;6.11;100.00
10261;BME280;5175;42.606;23.388;2023-04-15T04:44:41;93085.84;;;6.13;100.00
10261;BME280;5175;42.606;23.388;2023-04-15T04:47:09;93066.00;;;6.06;100.00
10261;BME280;5175;42.606;23.388;2023-04-15T04:49:36;93099.00;;;6.44;100.00
10261;BME280;5175;42.606;23.388;2023-04-15T04:52:04;93100.03;;;6.48;100.00
10261;BME280;5175;42.606;23.388;2023-04-15T04:54:31;93106.63;;;6.55;100.00
10261;BME280;5175;42.606;23.388;2023-04-15T04:56:58;93111.16;;;6.45;100.00
10261;BME280;5175;42.606;23.388;2023-04-15T04:59:25;93109.94;;;6.07;100.00
10261;BME280;5175;42.606;23.388;2023-04-15T05:01:51;93103.03;;;6.26;100.00
10261;BME280;5175;42.606;23.388;2023-04-15T05:04:18;93122.84;;;6.44;100.00
10261;BME280;5175;42.606;23.388;2023-04-15T05:06:45;93134.72;;;6.56;100.00
10261;BME280;5175;42.606;23.388;2023-04-15T05:09:13;93140.25;;;6.75;100.00
10261;BME280;5175;42.606;23.388;2023-04-15T05:11:40;93144.72;;;6.79;100.00
10261;BME280;5175;42.606;23.388;2023-04-15T05:14:07;93144.88;;;7.13;100.00
10261;BME280;5175;42.606;23.388;2023-04-15T05:16:34;93145.53;;;7.39;100.00
10261;BME280;5175;42.606;23.388;2023-04-15T05:19:01;93156.91;;;7.44;100.00
10261;BME280;5175;42.606;23.388;2023-04-15T05:21:42;93158.13;;;7.62;100.00
10261;BME280;5175;42.606;23.388;2023-04-15T05:24:09;93164.72;;;7.70;100.00
10261;BME280;5175;42.606;23.388;2023-04-15T05:29:19;93163.53;;;7.86;100.00
10261;BME280;5175;42.606;23.388;2023-04-15T05:31:46;93179.97;;;7.93;100.00
10261;BME280;5175;42.606;23.388;2023-04-15T05:34:12;93160.47;;;8.07;100.00
10261;BME280;5175;42.606;23.388;2023-04-15T05:36:55;93161.94;;;8.24;100.00
10261;BME280;5175;42.606;23.388;2023-04-15T05:39:36;93169.09;;;8.28;100.00
10261;BME280;5175;42.606;23.388;2023-04-15T05:42:04;93146.78;;;8.29;100.00
10261;BME280;5175;42.606;23.388;2023-04-15T05:44:32;93156.72;;;8.47;100.00
10261;BME280;5175;42.606;23.388;2023-04-15T05:46:59;93173.91;;;8.78;100.00
10261;BME280;5175;42.606;23.388;2023-04-15T05:49:27;93177.50;;;8.93;100.00
10261;BME280;5175;42.606;23.388;2023-04-15T05:51:55;93164.38;;;9.01;100.00
10261;BME280;5175;42.606;23.388;2023-04-15T05:54:21;93164.09;;;9.03;100.00
10261;BME280;5175;42.606;23.388;2023-04-15T05:56:48;93162.78;;;9.00;100.00
10261;BME280;5175;42.606;23.388;2023-04-15T05:59:17;93182.47;;;9.23;100.00
10261;BME280;5175;42.606;23.388;2023-04-15T06:01:43;93176.69;;;9.39;100.00
10261;BME280;5175;42.606;23.388;2023-04-15T06:04:10;93168.84;;;9.48;100.00
10261;BME280;5175;42.606;23.388;2023-04-15T06:06:37;93180.91;;;9.64;100.00
10261;BME280;5175;42.606;23.388;2023-04-15T06:09:04;93192.88;;;9.85;100.00
10261;BME280;5175;42.606;23.388;2023-04-15T06:11:46;93204.19;;;9.96;100.00
10261;BME280;5175;42.606;23.388;2023-04-15T06:14:13;93199.44;;;9.51;100.00
10261;BME280;5175;42.606;23.388;2023-04-15T06:16:41;93195.94;;;9.92;89.65
10261;BME280;5175;42.606;23.388;2023-04-15T06:19:08;93195.56;;;9.99;84.89
10261;BME280;5175;42.606;23.388;2023-04-15T06:21:50;93182.09;;;10.14;80.52
10261;BME280;5175;42.606;23.388;2023-04-15T06:24:16;93191.06;;;10.37;80.72
10261;BME280;5175;42.606;23.388;2023-04-15T06:26:43;93199.00;;;10.55;78.14
10261;BME280;5175;42.606;23.388;2023-04-15T06:29:10;93199.94;;;10.64;76.30
10261;BME280;5175;42.606;23.388;2023-04-15T06:31:37;93201.84;;;10.78;76.14
10261;BME280;5175;42.606;23.388;2023-04-15T06:34:20;93208.50;;;10.94;76.32
10261;BME280;5175;42.606;23.388;2023-04-15T06:36:47;93225.19;;;10.99;76.41
10261;BME280;5175;42.606;23.388;2023-04-15T06:39:14;93220.28;;;11.06;75.50
10261;BME280;5175;42.606;23.388;2023-04-15T06:41:40;93216.22;;;11.22;75.10
10261;BME280;5175;42.606;23.388;2023-04-15T06:44:07;93227.91;;;11.54;74.93
10261;BME280;5175;42.606;23.388;2023-04-15T06:46:34;93236.22;;;11.52;71.41
10261;BME280;5175;42.606;23.388;2023-04-15T06:49:01;93240.69;;;11.57;71.92
10261;BME280;5175;42.606;23.388;2023-04-15T06:51:29;93240.13;;;11.73;72.15
10261;BME280;5175;42.606;23.388;2023-04-15T06:53:57;93233.09;;;11.77;72.43
10261;BME280;5175;42.606;23.388;2023-04-15T06:56:23;93239.91;;;11.70;73.30
10261;BME280;5175;42.606;23.388;2023-04-15T06:58:51;93226.34;;;11.80;72.11
10261;BME280;5175;42.606;23.388;2023-04-15T07:01:18;93238.81;;;11.84;71.75
10261;BME280;5175;42.606;23.388;2023-04-15T07:03:46;93240.94;;;12.10;71.59
10261;BME280;5175;42.606;23.388;2023-04-15T07:06:12;93243.97;;;12.30;70.61
10261;BME280;5175;42.606;23.388;2023-04-15T07:08:40;93258.38;;;12.43;68.28
10261;BME280;5175;42.606;23.388;2023-04-15T07:11:08;93254.94;;;12.42;67.38
10261;BME280;5175;42.606;23.388;2023-04-15T07:13:34;93241.50;;;12.56;67.73
10261;BME280;5175;42.606;23.388;2023-04-15T07:16:01;93258.84;;;12.81;67.20
10261;BME280;5175;42.606;23.388;2023-04-15T07:18:28;93240.81;;;12.95;66.58
10261;BME280;5175;42.606;23.388;2023-04-15T07:20:55;93241.94;;;12.94;69.33
10261;BME280;5175;42.606;23.388;2023-04-15T07:23:21;93249.22;;;13.02;66.30
10261;BME280;5175;42.606;23.388;2023-04-15T07:25:50;93259.59;;;13.17;65.57
10261;BME280;5175;42.606;23.388;2023-04-15T07:28:18;93249.56;;;13.31;65.33
10261;BME280;5175;42.606;23.388;2023-04-15T07:33:27;93261.81;;;13.54;65.25
10261;BME280;5175;42.606;23.388;2023-04-15T07:35:53;93265.59;;;13.53;64.55
10261;BME280;5175;42.606;23.388;2023-04-15T07:38:20;93235.38;;;13.70;63.42
10261;BME280;5175;42.606;23.388;2023-04-15T07:40:47;93247.16;;;13.52;65.25
10261;BME280;5175;42.606;23.388;2023-04-15T07:43:15;93256.56;;;13.80;65.05
10261;BME280;5175;42.606;23.388;2023-04-15T07:45:43;93258.81;;;13.95;65.13
10261;BME280;5175;42.606;23.388;2023-04-15T07:48:09;93257.25;;;13.94;73.78
10261;BME280;5175;42.606;23.388;2023-04-15T07:50:36;93255.69;;;14.02;71.40
10261;BME280;5175;42.606;23.388;2023-04-15T07:53:03;93271.63;;;14.07;65.83
10261;BME280;5175;42.606;23.388;2023-04-15T07:55:30;93254.84;;;14.40;74.14
10261;BME280;5175;42.606;23.388;2023-04-15T07:57:57;93263.19;;;14.82;68.24
10261;BME280;5175;42.606;23.388;2023-04-15T08:00:25;93273.78;;;15.04;61.29
10261;BME280;5175;42.606;23.388;2023-04-15T08:02:52;93264.59;;;15.05;61.46
10261;BME280;5175;42.606;23.388;2023-04-15T08:05:21;93267.41;;;15.26;58.86
10261;BME280;5175;42.606;23.388;2023-04-15T08:07:48;93271.69;;;15.27;58.23
10261;BME280;5175;42.606;23.388;2023-04-15T08:10:15;93280.25;;;15.03;56.60
10261;BME280;5175;42.606;23.388;2023-04-15T08:12:41;93271.56;;;15.06;58.08
10261;BME280;5175;42.606;23.388;2023-04-15T08:15:09;93283.56;;;15.17;56.97
10261;BME280;5175;42.606;23.388;2023-04-15T08:17:38;93274.72;;;15.08;57.08
10261;BME280;5175;42.606;23.388;2023-04-15T08:20:06;93269.63;;;15.32;56.54
10261;BME280;5175;42.606;23.388;2023-04-15T08:22:33;93275.47;;;15.43;56.05
10261;BME280;5175;42.606;23.388;2023-04-15T08:25:14;93274.34;;;15.61;56.04
10261;BME280;5175;42.606;23.388;2023-04-15T08:27:40;93264.50;;;15.65;55.12
10261;BME280;5175;42.606;23.388;2023-04-15T08:30:08;93282.88;;;15.54;54.96
10261;BME280;5175;42.606;23.388;2023-04-15T08:32:35;93270.50;;;15.71;53.88
10261;BME280;5175;42.606;23.388;2023-04-15T08:35:04;93264.97;;;15.67;54.79
10261;BME280;5175;42.606;23.388;2023-04-15T08:37:31;93275.06;;;15.79;54.18
10261;BME280;5175;42.606;23.388;2023-04-15T08:39:57;93265.75;;;16.05;53.64
10261;BME280;5175;42.606;23.388;2023-04-15T08:42:29;93271.72;;;15.82;53.43
10261;BME280;5175;42.606;23.388;2023-04-15T08:44:58;93262.91;;;15.64;52.89
10261;BME280;5175;42.606;23.388;2023-04-15T08:47:29;93266.53;;;15.77;54.18
10261;BME280;5175;42.606;23.388;2023-04-15T08:49:57;93260.88;;;15.61;53.14
10261;BME280;5175;42.606;23.388;2023-04-15T08:52:25;93265.50;;;15.35;53.16
10261;BME280;5175;42.606;23.388;2023-04-15T08:54:56;93253.28;;;15.63;53.62
10261;BME280;5175;42.606;23.388;2023-04-15T08:57:25;93256.13;;;15.96;52.47
10261;BME280;5175;42.606;23.388;2023-04-15T08:59:52;93259.06;;;16.11;50.49
10261;BME280;5175;42.606;23.388;2023-04-15T09:02:22;93249.53;;;16.43;47.71
10261;BME280;5175;42.606;23.388;2023-04-15T09:04:49;93236.91;;;16.14;47.02
10261;BME280;5175;42.606;23.388;2023-04-15T09:07:16;93238.06;;;16.25;45.64
10261;BME280;5175;42.606;23.388;2023-04-15T09:09:44;93242.53;;;16.51;44.44
10261;BME280;5175;42.606;23.388;2023-04-15T09:12:12;93240.78;;;16.55;45.60
10261;BME280;5175;42.606;23.388;2023-04-15T09:14:52;93221.41;;;16.32;45.08
10261;BME280;5175;42.606;23.388;2023-04-15T09:17:19;93208.03;;;16.44;47.00
10261;BME280;5175;42.606;23.388;2023-04-15T09:19:46;93222.16;;;16.62;44.16
10261;BME280;5175;42.606;23.388;2023-04-15T09:22:14;93223.38;;;16.73;42.41
10261;BME280;5175;42.606;23.388;2023-04-15T09:24:41;93224.41;;;16.60;45.03
10261;BME280;5175;42.606;23.388;2023-04-15T09:27:09;93214.78;;;16.59;45.57
10261;BME280;5175;42.606;23.388;2023-04-15T09:29:36;93227.31;;;16.75;43.21
10261;BME280;5175;42.606;23.388;2023-04-15T09:32:14;93236.22;;;16.88;44.28
10261;BME280;5175;42.606;23.388;2023-04-15T09:34:41;93235.16;;;17.01;43.15
10261;BME280;5175;42.606;23.388;2023-04-15T09:37:08;93224.59;;;16.96;44.41
10261;BME280;5175;42.606;23.388;2023-04-15T09:39:50;93172.63;;;16.34;46.57
10261;BME280;5175;42.606;23.388;2023-04-15T09:42:18;93231.00;;;16.71;45.18
10261;BME280;5175;42.606;23.388;2023-04-15T09:44:48;93233.72;;;17.04;46.30
10261;BME280;5175;42.606;23.388;2023-04-15T09:47:27;93232.25;;;17.06;45.94
10261;BME280;5175;42.606;23.388;2023-04-15T09:49:54;93235.50;;;17.44;45.52
10261;BME280;5175;42.606;23.388;2023-04-15T09:52:21;93243.34;;;17.82;43.43
10261;BME280;5175;42.606;23.388;2023-04-15T09:54:52;93247.50;;;17.80;43.24
10261;BME280;5175;42.606;23.388;2023-04-15T09:57:20;93238.53;;;17.76;41.83
10261;BME280;5175;42.606;23.388;2023-04-15T09:59:48;93222.34;;;17.76;43.00
10261;BME280;5175;42.606;23.388;2023-04-15T10:02:15;93219.75;;;17.91;43.73
10261;BME280;5175;42.606;23.388;2023-04-15T10:04:44;93223.59;;;18.02;43.65
10261;BME280;5175;42.606;23.388;2023-04-15T10:07:14;93227.06;;;18.15;41.65
10261;BME280;5175;42.606;23.388;2023-04-15T10:09:43;93227.31;;;18.10;43.32
10261;BME280;5175;42.606;23.388;2023-04-15T10:12:11;93213.00;;;17.85;39.93
10261;BME280;5175;42.606;23.388;2023-04-15T10:14:41;93213.00;;;17.85;40.92
10261;BME280;5175;42.606;23.388;2023-04-15T10:17:10;93215.94;;;17.68;43.15
10261;BME280;5175;42.606;23.388;2023-04-15T10:19:38;93205.47;;;17.79;42.57
10261;BME280;5175;42.606;23.388;2023-04-15T10:22:09;93204.34;;;18.04;41.45
10261;BME280;5175;42.606;23.388;2023-04-15T10:24:38;93211.75;;;18.43;43.53
10261;BME280;5175;42.606;23.388;2023-04-15T10:27:06;93202.50;;;18.96;38.77
10261;BME280;5175;42.606;23.388;2023-04-15T10:29:33;93204.50;;;18.99;39.16
10261;BME280;5175;42.606;23.388;2023-04-15T10:32:04;93194.81;;;18.98;40.30
10261;BME280;5175;42.606;23.388;2023-04-15T10:34:31;93205.25;;;19.40;40.28
10261;BME280;5175;42.606;23.388;2023-04-15T10:37:01;93189.78;;;19.40;39.65
10261;BME280;5175;42.606;23.388;2023-04-15T10:39:41;93200.13;;;19.22;41.15
10261;BME280;5175;42.606;23.388;2023-04-15T10:42:09;93207.06;;;19.08;37.46
10261;BME280;5175;42.606;23.388;2023-04-15T10:44:37;93195.66;;;19.14;39.83
10261;BME280;5175;42.606;23.388;2023-04-15T10:47:09;93203.69;;;19.26;39.37
10261;BME280;5175;42.606;23.388;2023-04-15T10:49:43;93205.69;;;18.86;39.31
10261;BME280;5175;42.606;23.388;2023-04-15T10:52:10;93191.22;;;18.66;40.26
10261;BME280;5175;42.606;23.388;2023-04-15T10:54:37;93196.66;;;18.94;38.94
10261;BME280;5175;42.606;23.388;2023-04-15T10:57:12;93194.03;;;18.98;40.49
10261;BME280;5175;42.606;23.388;2023-04-15T10:59:58;93189.22;;;18.91;39.32
10261;BME280;5175;42.606;23.388;2023-04-15T11:02:39;93197.56;;;19.14;38.97
10261;BME280;5175;42.606;23.388;2023-04-15T11:05:07;93194.75;;;18.83;36.98
10261;BME280;5175;42.606;23.388;2023-04-15T11:07:45;93170.06;;;18.68;38.39
10261;BME280;5175;42.606;23.388;2023-04-15T11:10:49;93193.88;;;18.79;39.11
10261;BME280;5175;42.606;23.388;2023-04-15T11:13:20;93192.53;;;18.85;40.53
10261;BME280;5175;42.606;23.388;2023-04-15T11:15:48;93196.97;;;18.93;37.71
10261;BME280;5175;42.606;23.388;2023-04-15T11:18:18;93202.19;;;18.86;38.48
10261;BME280;5175;42.606;23.388;2023-04-15T11:20:48;93189.03;;;18.84;37.47
10261;BME280;5175;42.606;23.388;2023-04-15T11:23:17;93200.09;;;19.07;37.58
10261;BME280;5175;42.606;23.388;2023-04-15T11:25:47;93188.34;;;19.15;35.18
10261;BME280;5175;42.606;23.388;2023-04-15T11:28:14;93195.06;;;19.36;37.94
10261;BME280;5175;42.606;23.388;2023-04-15T11:30:41;93192.00;;;19.66;37.00
10261;BME280;5175;42.606;23.388;2023-04-15T11:33:10;93196.38;;;19.70;37.65
10261;BME280;5175;42.606;23.388;2023-04-15T11:35:41;93191.66;;;19.67;36.07
10261;BME280;5175;42.606;23.388;2023-04-15T11:38:10;93186.41;;;19.59;37.21
10261;BME280;5175;42.606;23.388;2023-04-15T11:40:40;93186.69;;;19.54;36.42
10261;BME280;5175;42.606;23.388;2023-04-15T11:43:09;93191.56;;;19.79;34.03
10261;BME280;5175;42.606;23.388;2023-04-15T11:45:37;93186.75;;;19.57;36.36
10261;BME280;5175;42.606;23.388;2023-04-15T11:48:13;93184.25;;;19.36;34.89
10261;BME280;5175;42.606;23.388;2023-04-15T11:50:41;93185.53;;;19.55;34.35
10261;BME280;5175;42.606;23.388;2023-04-15T11:53:12;93183.63;;;19.55;34.42
10261;BME280;5175;42.606;23.388;2023-04-15T11:55:43;93201.06;;;19.42;30.40
10261;BME280;5175;42.606;23.388;2023-04-15T11:58:12;93199.44;;;18.98;31.52
10261;BME280;5175;42.606;23.388;2023-04-15T12:00:39;93189.28;;;18.67;32.40
10261;BME280;5175;42.606;23.388;2023-04-15T12:03:15;93169.53;;;18.39;32.08
10261;BME280;5175;42.606;23.388;2023-04-15T12:06:13;93174.06;;;18.23;33.53
10261;BME280;5175;42.606;23.388;2023-04-15T12:09:07;93177.84;;;18.46;33.07
10261;BME280;5175;42.606;23.388;2023-04-15T12:11:43;93184.25;;;18.65;33.75
10261;BME280;5175;42.606;23.388;2023-04-15T12:14:15;93167.25;;;18.65;33.04
10261;BME280;5175;42.606;23.388;2023-04-15T12:16:44;93174.59;;;18.40;31.25
10261;BME280;5175;42.606;23.388;2023-04-15T12:19:12;93175.63;;;18.48;32.18
10261;BME280;5175;42.606;23.388;2023-04-15T12:21:43;93183.41;;;18.25;32.57
10261;BME280;5175;42.606;23.388;2023-04-15T12:24:11;93196.59;;;18.14;31.28
10261;BME280;5175;42.606;23.388;2023-04-15T12:26:43;93186.34;;;18.20;32.56
10261;BME280;5175;42.606;23.388;2023-04-15T12:29:11;93200.22;;;18.46;30.20
10261;BME280;5175;42.606;23.388;2023-04-15T12:31:46;93197.47;;;18.31;31.34
10261;BME280;5175;42.606;23.388;2023-04-15T12:34:14;93198.63;;;17.93;32.98
10261;BME280;5175;42.606;23.388;2023-04-15T12:36:42;93193.66;;;17.95;31.69
10261;BME280;5175;42.606;23.388;2023-04-15T12:39:09;93186.44;;;18.48;30.91
10261;BME280;5175;42.606;23.388;2023-04-15T12:41:36;93162.22;;;18.51;32.67
10261;BME280;5175;42.606;23.388;2023-04-15T12:44:03;93187.75;;;18.94;32.55
10261;BME280;5175;42.606;23.388;2023-04-15T12:46:30;93198.03;;;18.48;31.16
10261;BME280;5175;42.606;23.388;2023-04-15T12:48:57;93195.06;;;18.41;32.62
10261;BME280;5175;42.606;23.388;2023-04-15T12:51:24;93184.44;;;18.72;30.00
10261;BME280;5175;42.606;23.388;2023-04-15T12:53:53;93203.47;;;18.76;30.11
10261;BME280;5175;42.606;23.388;2023-04-15T12:56:20;93202.38;;;18.93;29.85
10261;BME280;5175;42.606;23.388;2023-04-15T12:58:46;93183.22;;;19.25;30.69
10261;BME280;5175;42.606;23.388;2023-04-15T13:01:13;93198.72;;;19.56;33.52
10261;BME280;5175;42.606;23.388;2023-04-15T13:03:40;93186.59;;;19.81;29.01
10261;BME280;5175;42.606;23.388;2023-04-15T13:06:07;93181.16;;;20.13;31.02
10261;BME280;5175;42.606;23.388;2023-04-15T13:08:34;93201.50;;;20.38;29.71
10261;BME280;5175;42.606;23.388;2023-04-15T13:11:02;93163.19;;;19.73;28.81
10261;BME280;5175;42.606;23.388;2023-04-15T13:13:30;93194.81;;;19.85;28.61
10261;BME280;5175;42.606;23.388;2023-04-15T13:15:57;93189.81;;;19.87;29.10